sensor_id;sensor_type;location;lat;lon;timestamp;pressure;altitude;pressure_sealevel;temperature;humidity
56402;BME280;42299;35.160;26.100;2023-04-19T00:00:28;100904.38;;;13.53;100.00
56402;BME280;42299;35.160;26.100;2023-04-19T00:01:50;100907.94;;;13.51;100.00
56402;BME280;42299;35.160;26.100;2023-04-19T00:03:11;100910.56;;;13.49;100.00
56402;BME280;42299;35.160;26.100;2023-04-19T00:04:36;100912.34;;;13.50;100.00
56402;BME280;42299;35.160;26.100;2023-04-19T00:05:59;100905.28;;;13.51;100.00
56402;BME280;42299;35.160;26.100;2023-04-19T00:07:20;100897.31;;;13.54;100.00
56402;BME280;42299;35.160;26.100;2023-04-19T00:08:43;100907.97;;;13.57;100.00
56402;BME280;42299;35.160;26.100;2023-04-19T00:10:05;100909.75;;;13.58;100.00
56402;BME280;42299;35.160;26.100;2023-04-19T00:11:28;100904.41;;;13.60;100.00
56402;BME280;42299;35.160;26.100;2023-04-19T00:12:49;100904.44;;;13.61;100.00
56402;BME280;42299;35.160;26.100;2023-04-19T00:14:11;100904.44;;;13.63;100.00
56402;BME280;42299;35.160;26.100;2023-04-19T00:15:32;100902.66;;;13.62;100.00
56402;BME280;42299;35.160;26.100;2023-04-19T00:16:55;100902.66;;;13.62;100.00
56402;BME280;42299;35.160;26.100;2023-04-19T00:18:16;100892.91;;;13.59;100.00
56402;BME280;42299;35.160;26.100;2023-04-19T00:19:40;100901.78;;;13.58;100.00
56402;BME280;42299;35.160;26.100;2023-04-19T00:21:01;100895.56;;;13.56;100.00
56402;BME280;42299;35.160;26.100;2023-04-19T00:22:24;100898.19;;;13.53;100.00
56402;BME280;42299;35.160;26.100;2023-04-19T00:23:46;100891.13;;;13.50;100.00
56402;BME280;42299;35.160;26.100;2023-04-19T00:25:08;100906.13;;;13.47;100.00
56402;BME280;42299;35.160;26.100;2023-04-19T00:26:30;100899.00;;;13.41;100.00
56402;BME280;42299;35.160;26.100;2023-04-19T00:27:51;100894.59;;;13.37;100.00
56402;BME280;42299;35.160;26.100;2023-04-19T00:29:14;100900.72;;;13.33;100.00
56402;BME280;42299;35.160;26.100;2023-04-19T00:30:37;100904.25;;;13.31;100.00
56402;BME280;42299;35.160;26.100;2023-04-19T00:31:58;100898.09;;;13.32;100.00
56402;BME280;42299;35.160;26.100;2023-04-19T00:33:20;100900.72;;;13.33;100.00
56402;BME280;42299;35.160;26.100;2023-04-19T00:34:44;100901.66;;;13.37;100.00
56402;BME280;42299;35.160;26.100;2023-04-19T00:36:06;100897.25;;;13.37;100.00
56402;BME280;42299;35.160;26.100;2023-04-19T00:37:28;100900.78;;;13.41;100.00
56402;BME280;42299;35.160;26.100;2023-04-19T00:38:50;100906.09;;;13.42;100.00
56402;BME280;42299;35.160;26.100;2023-04-19T00:40:12;100906.13;;;13.44;100.00
56402;BME280;42299;35.160;26.100;2023-04-19T00:41:34;100902.56;;;13.42;100.00
56402;BME280;42299;35.160;26.100;2023-04-19T00:42:58;100907.84;;;13.40;100.00
56402;BME280;42299;35.160;26.100;2023-04-19T00:44:19;100907.84;;;13.37;100.00
56402;BME280;42299;35.160;26.100;2023-04-19T00:45:41;100906.91;;;13.34;100.00
56402;BME280;42299;35.160;26.100;2023-04-19T00:47:03;100906.03;;;13.30;100.00
56402;BME280;42299;35.160;26.100;2023-04-19T00:48:25;100909.50;;;13.26;100.00
56402;BME280;42299;35.160;26.100;2023-04-19T00:49:48;100906.84;;;13.26;100.00
56402;BME280;42299;35.160;26.100;2023-04-19T00:51:11;100903.34;;;13.26;100.00
56402;BME280;42299;35.160;26.100;2023-04-19T00:52:33;100906.88;;;13.25;100.00
56402;BME280;42299;35.160;26.100;2023-04-19T00:53:55;100905.97;;;13.24;100.00
56402;BME280;42299;35.160;26.100;2023-04-19T00:55:20;100905.13;;;13.25;100.00
56402;BME280;42299;35.160;26.100;2023-04-19T00:56:44;100905.13;;;13.25;100.00
56402;BME280;42299;35.160;26.100;2023-04-19T00:58:07;100901.56;;;13.26;100.00
56402;BME280;42299;35.160;26.100;2023-04-19T00:59:28;100897.16;;;13.24;100.00
56402;BME280;42299;35.160;26.100;2023-04-19T01:00:51;100897.03;;;13.13;100.00
56402;BME280;42299;35.160;26.100;2023-04-19T01:02:14;100890.75;;;12.99;100.00
56402;BME280;42299;35.160;26.100;2023-04-19T01:03:35;100895.09;;;12.91;100.00
56402;BME280;42299;35.160;26.100;2023-04-19T01:04:59;100892.44;;;12.91;100.00
56402;BME280;42299;35.160;26.100;2023-04-19T01:06:21;100903.97;;;12.96;100.00
56402;BME280;42299;35.160;26.100;2023-04-19T01:07:44;100893.34;;;12.96;100.00
56402;BME280;42299;35.160;26.100;2023-04-19T01:09:08;100896.00;;;12.94;100.00
56402;BME280;42299;35.160;26.100;2023-04-19T01:10:34;100895.13;;;12.97;100.00
56402;BME280;42299;35.160;26.100;2023-04-19T01:11:55;100896.91;;;13.01;100.00
56402;BME280;42299;35.160;26.100;2023-04-19T01:13:17;100895.22;;;13.04;100.00
56402;BME280;42299;35.160;26.100;2023-04-19T01:14:40;100896.09;;;13.06;100.00
56402;BME280;42299;35.160;26.100;2023-04-19T01:16:01;100895.22;;;13.06;100.00
56402;BME280;42299;35.160;26.100;2023-04-19T01:17:25;100892.56;;;13.06;100.00
56402;BME280;42299;35.160;26.100;2023-04-19T01:18:47;100897.84;;;13.07;100.00
56402;BME280;42299;35.160;26.100;2023-04-19T01:20:11;100892.56;;;13.09;100.00
56402;BME280;42299;35.160;26.100;2023-04-19T01:21:35;100893.50;;;13.11;100.00
56402;BME280;42299;35.160;26.100;2023-04-19T01:22:59;100888.19;;;13.11;100.00
56402;BME280;42299;35.160;26.100;2023-04-19T01:24:22;100893.50;;;13.11;100.00
56402;BME280;42299;35.160;26.100;2023-04-19T01:25:43;100888.16;;;13.09;100.00
56402;BME280;42299;35.160;26.100;2023-04-19T01:27:06;100890.81;;;13.08;100.00
56402;BME280;42299;35.160;26.100;2023-04-19T01:28:27;100889.94;;;13.09;100.00
56402;BME280;42299;35.160;26.100;2023-04-19T01:29:50;100886.41;;;13.10;100.00
56402;BME280;42299;35.160;26.100;2023-04-19T01:31:12;100894.38;;;13.11;100.00
56402;BME280;42299;35.160;26.100;2023-04-19T01:32:33;100895.25;;;13.12;100.00
56402;BME280;42299;35.160;26.100;2023-04-19T01:33:56;100896.09;;;13.08;100.00
56402;BME280;42299;35.160;26.100;2023-04-19T01:35:18;100893.41;;;13.02;100.00
56402;BME280;42299;35.160;26.100;2023-04-19T01:36:39;100893.34;;;12.96;100.00
56402;BME280;42299;35.160;26.100;2023-04-19T01:38:03;100892.44;;;12.94;100.00
56402;BME280;42299;35.160;26.100;2023-04-19T01:39:25;100893.34;;;12.93;100.00
56402;BME280;42299;35.160;26.100;2023-04-19T01:40:47;100889.78;;;12.91;100.00
56402;BME280;42299;35.160;26.100;2023-04-19T01:42:09;100892.44;;;12.91;100.00
56402;BME280;42299;35.160;26.100;2023-04-19T01:43:30;100888.91;;;12.90;100.00
56402;BME280;42299;35.160;26.100;2023-04-19T01:44:53;100883.59;;;12.89;100.00
56402;BME280;42299;35.160;26.100;2023-04-19T01:46:15;100891.56;;;12.90;100.00
56402;BME280;42299;35.160;26.100;2023-04-19T01:47:36;100890.69;;;12.91;100.00
56402;BME280;42299;35.160;26.100;2023-04-19T01:48:58;100890.69;;;12.94;100.00
56402;BME280;42299;35.160;26.100;2023-04-19T01:50:21;100886.28;;;12.95;100.00
56402;BME280;42299;35.160;26.100;2023-04-19T01:51:42;100890.72;;;12.97;100.00
56402;BME280;42299;35.160;26.100;2023-04-19T01:53:06;100891.63;;;13.01;100.00
56402;BME280;42299;35.160;26.100;2023-04-19T01:54:28;100889.88;;;13.03;100.00
56402;BME280;42299;35.160;26.100;2023-04-19T01:55:51;100896.97;;;13.04;100.00
56402;BME280;42299;35.160;26.100;2023-04-19T01:57:14;100886.38;;;13.04;100.00
56402;BME280;42299;35.160;26.100;2023-04-19T01:58:38;100890.75;;;13.02;100.00
56402;BME280;42299;35.160;26.100;2023-04-19T02:00:01;100892.50;;;13.01;100.00
56402;BME280;42299;35.160;26.100;2023-04-19T02:01:22;100879.25;;;13.00;100.00
56402;BME280;42299;35.160;26.100;2023-04-19T02:02:45;100887.22;;;12.98;100.00
56402;BME280;42299;35.160;26.100;2023-04-19T02:04:09;100880.13;;;12.97;100.00
56402;BME280;42299;35.160;26.100;2023-04-19T02:05:30;100881.88;;;12.97;100.00
56402;BME280;42299;35.160;26.100;2023-04-19T02:06:53;100883.63;;;12.95;100.00
56402;BME280;42299;35.160;26.100;2023-04-19T02:08:17;100880.97;;;12.95;100.00
56402;BME280;42299;35.160;26.100;2023-04-19T02:09:38;100884.50;;;12.94;100.00
56402;BME280;42299;35.160;26.100;2023-04-19T02:11:05;100878.31;;;12.93;100.00
56402;BME280;42299;35.160;26.100;2023-04-19T02:12:28;100873.91;;;12.91;100.00
56402;BME280;42299;35.160;26.100;2023-04-19T02:13:50;100880.97;;;12.92;100.00
56402;BME280;42299;35.160;26.100;2023-04-19T02:15:13;100881.84;;;12.91;100.00
56402;BME280;42299;35.160;26.100;2023-04-19T02:16:34;100886.28;;;12.92;100.00
56402;BME280;42299;35.160;26.100;2023-04-19T02:17:56;100883.59;;;12.90;100.00
56402;BME280;42299;35.160;26.100;2023-04-19T02:19:19;100882.72;;;12.90;100.00
56402;BME280;42299;35.160;26.100;2023-04-19T02:20:41;100882.72;;;12.90;100.00
56402;BME280;42299;35.160;26.100;2023-04-19T02:22:03;100889.78;;;12.89;100.00
56402;BME280;42299;35.160;26.100;2023-04-19T02:23:27;100891.53;;;12.89;100.00
56402;BME280;42299;35.160;26.100;2023-04-19T02:24:50;100890.63;;;12.87;100.00
56402;BME280;42299;35.160;26.100;2023-04-19T02:26:11;100894.16;;;12.84;100.00
56402;BME280;42299;35.160;26.100;2023-04-19T02:27:37;100895.88;;;12.82;100.00
56402;BME280;42299;35.160;26.100;2023-04-19T02:28:59;100895.88;;;12.79;100.00
56402;BME280;42299;35.160;26.100;2023-04-19T02:30:22;100889.69;;;12.78;100.00
56402;BME280;42299;35.160;26.100;2023-04-19T02:31:44;100888.78;;;12.76;100.00
56402;BME280;42299;35.160;26.100;2023-04-19T02:33:06;100889.66;;;12.75;100.00
56402;BME280;42299;35.160;26.100;2023-04-19T02:34:28;100882.56;;;12.74;100.00
56402;BME280;42299;35.160;26.100;2023-04-19T02:35:50;100883.47;;;12.75;100.00
56402;BME280;42299;35.160;26.100;2023-04-19T02:37:12;100888.75;;;12.75;100.00
56402;BME280;42299;35.160;26.100;2023-04-19T02:38:36;100882.59;;;12.76;100.00
56402;BME280;42299;35.160;26.100;2023-04-19T02:39:58;100882.59;;;12.76;100.00
56402;BME280;42299;35.160;26.100;2023-04-19T02:41:23;100886.16;;;12.78;100.00
56402;BME280;42299;35.160;26.100;2023-04-19T02:42:45;100889.69;;;12.77;100.00
56402;BME280;42299;35.160;26.100;2023-04-19T02:44:06;100883.47;;;12.75;100.00
56402;BME280;42299;35.160;26.100;2023-04-19T02:45:29;100878.16;;;12.73;100.00
56402;BME280;42299;35.160;26.100;2023-04-19T02:46:51;100888.75;;;12.72;100.00
56402;BME280;42299;35.160;26.100;2023-04-19T02:48:14;100882.59;;;12.73;100.00
56402;BME280;42299;35.160;26.100;2023-04-19T02:49:35;100889.66;;;12.75;100.00
56402;BME280;42299;35.160;26.100;2023-04-19T02:51:02;100882.59;;;12.76;100.00
56402;BME280;42299;35.160;26.100;2023-04-19T02:52:25;100886.19;;;12.80;100.00
56402;BME280;42299;35.160;26.100;2023-04-19T02:53:48;100880.84;;;12.78;100.00
56402;BME280;42299;35.160;26.100;2023-04-19T02:55:10;100883.50;;;12.78;100.00
56402;BME280;42299;35.160;26.100;2023-04-19T02:56:33;100883.50;;;12.78;100.00
56402;BME280;42299;35.160;26.100;2023-04-19T02:57:56;100885.28;;;12.77;100.00
56402;BME280;42299;35.160;26.100;2023-04-19T02:59:18;100885.28;;;12.77;100.00
56402;BME280;42299;35.160;26.100;2023-04-19T03:00:40;100878.19;;;12.76;100.00
56402;BME280;42299;35.160;26.100;2023-04-19T03:02:08;100879.94;;;12.76;100.00
56402;BME280;42299;35.160;26.100;2023-04-19T03:03:29;100888.78;;;12.76;100.00
56402;BME280;42299;35.160;26.100;2023-04-19T03:04:51;100884.34;;;12.75;100.00
56402;BME280;42299;35.160;26.100;2023-04-19T03:06:14;100883.50;;;12.76;100.00
56402;BME280;42299;35.160;26.100;2023-04-19T03:07:36;100887.03;;;12.78;100.00
56402;BME280;42299;35.160;26.100;2023-04-19T03:08:59;100873.78;;;12.77;100.00
56402;BME280;42299;35.160;26.100;2023-04-19T03:10:22;100878.19;;;12.76;100.00
56402;BME280;42299;35.160;26.100;2023-04-19T03:11:43;100882.56;;;12.74;100.00
56402;BME280;42299;35.160;26.100;2023-04-19T03:13:05;100872.00;;;12.73;100.00
56402;BME280;42299;35.160;26.100;2023-04-19T03:14:26;100886.09;;;12.73;100.00
56402;BME280;42299;35.160;26.100;2023-04-19T03:15:49;100884.31;;;12.69;100.00
56402;BME280;42299;35.160;26.100;2023-04-19T03:17:14;100887.81;;;12.68;100.00
56402;BME280;42299;35.160;26.100;2023-04-19T03:18:37;100883.41;;;12.66;100.00
56402;BME280;42299;35.160;26.100;2023-04-19T03:19:59;100891.28;;;12.61;100.00
56402;BME280;42299;35.160;26.100;2023-04-19T03:21:22;100887.72;;;12.56;100.00
56402;BME280;42299;35.160;26.100;2023-04-19T03:22:47;100883.25;;;12.54;100.00
56402;BME280;42299;35.160;26.100;2023-04-19T03:24:11;100890.34;;;12.55;100.00
56402;BME280;42299;35.160;26.100;2023-04-19T03:25:38;100885.06;;;12.56;100.00
56402;BME280;42299;35.160;26.100;2023-04-19T03:27:12;100889.50;;;12.57;100.00
56402;BME280;42299;35.160;26.100;2023-04-19T03:28:35;100892.16;;;12.60;100.00
56402;BME280;42299;35.160;26.100;2023-04-19T03:30:11;100889.50;;;12.60;100.00
56402;BME280;42299;35.160;26.100;2023-04-19T03:31:34;100900.13;;;12.62;100.00
56402;BME280;42299;35.160;26.100;2023-04-19T03:32:55;100900.09;;;12.60;100.00
56402;BME280;42299;35.160;26.100;2023-04-19T03:34:18;100896.56;;;12.58;100.00
56402;BME280;42299;35.160;26.100;2023-04-19T03:35:42;100901.88;;;12.58;100.00
56402;BME280;42299;35.160;26.100;2023-04-19T03:37:05;100893.00;;;12.55;100.00
56402;BME280;42299;35.160;26.100;2023-04-19T03:38:28;100896.50;;;12.54;100.00
56402;BME280;42299;35.160;26.100;2023-04-19T03:39:52;100894.75;;;12.53;100.00
56402;BME280;42299;35.160;26.100;2023-04-19T03:41:22;100895.63;;;12.52;100.00
56402;BME280;42299;35.160;26.100;2023-04-19T03:42:53;100907.09;;;12.51;100.00
56402;BME280;42299;35.160;26.100;2023-04-19T03:44:23;100903.56;;;12.52;100.00
56402;BME280;42299;35.160;26.100;2023-04-19T03:45:45;100904.47;;;12.52;100.00
56402;BME280;42299;35.160;26.100;2023-04-19T03:47:07;100908.00;;;12.54;100.00
56402;BME280;42299;35.160;26.100;2023-04-19T03:48:35;100899.19;;;12.55;100.00
56402;BME280;42299;35.160;26.100;2023-04-19T03:49:57;100896.56;;;12.58;100.00
56402;BME280;42299;35.160;26.100;2023-04-19T03:51:21;100905.41;;;12.60;100.00
56402;BME280;42299;35.160;26.100;2023-04-19T03:52:43;100907.19;;;12.61;100.00
56402;BME280;42299;35.160;26.100;2023-04-19T03:54:07;100905.41;;;12.62;100.00
56402;BME280;42299;35.160;26.100;2023-04-19T03:55:29;100906.34;;;12.65;100.00
56402;BME280;42299;35.160;26.100;2023-04-19T03:56:52;100906.38;;;12.68;100.00
56402;BME280;42299;35.160;26.100;2023-04-19T03:58:14;100911.69;;;12.70;100.00
56402;BME280;42299;35.160;26.100;2023-04-19T03:59:49;100920.53;;;12.70;100.00
56402;BME280;42299;35.160;26.100;2023-04-19T04:01:17;100908.13;;;12.68;100.00
56402;BME280;42299;35.160;26.100;2023-04-19T04:02:39;100912.50;;;12.64;100.00
56402;BME280;42299;35.160;26.100;2023-04-19T04:04:02;100911.66;;;12.65;100.00
56402;BME280;42299;35.160;26.100;2023-04-19T04:05:26;100902.81;;;12.68;100.00
56402;BME280;42299;35.160;26.100;2023-04-19T04:06:47;100912.56;;;12.69;100.00
56402;BME280;42299;35.160;26.100;2023-04-19T04:08:11;100912.59;;;12.73;100.00
56402;BME280;42299;35.160;26.100;2023-04-19T04:09:34;100916.19;;;12.78;100.00
56402;BME280;42299;35.160;26.100;2023-04-19T04:10:58;100919.78;;;12.85;100.00
56402;BME280;42299;35.160;26.100;2023-04-19T04:12:19;100928.63;;;12.86;100.00
56402;BME280;42299;35.160;26.100;2023-04-19T04:13:42;100925.88;;;12.76;100.00
56402;BME280;42299;35.160;26.100;2023-04-19T04:15:13;100925.75;;;12.63;100.00
56402;BME280;42299;35.160;26.100;2023-04-19T04:16:40;100930.09;;;12.58;100.00
56402;BME280;42299;35.160;26.100;2023-04-19T04:18:02;100926.56;;;12.57;100.00
56402;BME280;42299;35.160;26.100;2023-04-19T04:19:25;100927.53;;;12.65;100.00
56402;BME280;42299;35.160;26.100;2023-04-19T04:20:47;100932.09;;;12.78;100.00
56402;BME280;42299;35.160;26.100;2023-04-19T04:22:09;100937.53;;;12.97;100.00
56402;BME280;42299;35.160;26.100;2023-04-19T04:23:34;100932.38;;;13.12;100.00
56402;BME280;42299;35.160;26.100;2023-04-19T04:24:58;100933.44;;;13.31;100.00
56402;BME280;42299;35.160;26.100;2023-04-19T04:26:29;100927.34;;;13.48;100.00
56402;BME280;42299;35.160;26.100;2023-04-19T04:28:03;100933.66;;;13.64;100.00
56402;BME280;42299;35.160;26.100;2023-04-19T04:29:27;100927.47;;;13.73;100.00
56402;BME280;42299;35.160;26.100;2023-04-19T04:30:52;100924.88;;;13.77;100.00
56402;BME280;42299;35.160;26.100;2023-04-19T04:32:13;100927.56;;;13.83;100.00
56402;BME280;42299;35.160;26.100;2023-04-19T04:33:38;100922.28;;;13.94;100.00
56402;BME280;42299;35.160;26.100;2023-04-19T04:35:05;100931.19;;;14.04;100.00
56402;BME280;42299;35.160;26.100;2023-04-19T04:36:35;100932.09;;;14.09;100.00
56402;BME280;42299;35.160;26.100;2023-04-19T04:37:57;100925.88;;;14.11;100.00
56402;BME280;42299;35.160;26.100;2023-04-19T04:39:19;100928.56;;;14.13;100.00
56402;BME280;42299;35.160;26.100;2023-04-19T04:40:42;100933.00;;;14.11;100.00
56402;BME280;42299;35.160;26.100;2023-04-19T04:42:05;100930.31;;;14.08;100.00
56402;BME280;42299;35.160;26.100;2023-04-19T04:43:28;100933.81;;;14.05;100.00
56402;BME280;42299;35.160;26.100;2023-04-19T04:44:52;100928.53;;;14.02;100.00
56402;BME280;42299;35.160;26.100;2023-04-19T04:46:18;100919.66;;;14.00;100.00
56402;BME280;42299;35.160;26.100;2023-04-19T04:47:40;100925.88;;;14.02;100.00
56402;BME280;42299;35.160;26.100;2023-04-19T04:49:04;100931.22;;;14.13;100.00
56402;BME280;42299;35.160;26.100;2023-04-19T04:50:29;100928.59;;;14.25;100.00
56402;BME280;42299;35.160;26.100;2023-04-19T04:51:52;100929.53;;;14.34;100.00
56402;BME280;42299;35.160;26.100;2023-04-19T04:53:16;100928.72;;;14.48;100.00
56402;BME280;42299;35.160;26.100;2023-04-19T04:54:40;100920.75;;;14.55;100.00
56402;BME280;42299;35.160;26.100;2023-04-19T04:56:11;100923.44;;;14.67;100.00
56402;BME280;42299;35.160;26.100;2023-04-19T04:57:36;100920.78;;;14.80;100.00
56402;BME280;42299;35.160;26.100;2023-04-19T04:59:00;100923.44;;;14.93;100.00
56402;BME280;42299;35.160;26.100;2023-04-19T05:00:27;100922.56;;;15.11;100.00
56402;BME280;42299;35.160;26.100;2023-04-19T05:01:57;100920.78;;;15.31;100.00
56402;BME280;42299;35.160;26.100;2023-04-19T05:03:20;100912.75;;;15.51;100.00
56402;BME280;42299;35.160;26.100;2023-04-19T05:04:48;100913.66;;;15.68;100.00
56402;BME280;42299;35.160;26.100;2023-04-19T05:06:11;100910.94;;;15.88;100.00
56402;BME280;42299;35.160;26.100;2023-04-19T05:07:32;100917.06;;;16.07;100.00
56402;BME280;42299;35.160;26.100;2023-04-19T05:08:56;100917.84;;;16.25;100.00
56402;BME280;42299;35.160;26.100;2023-04-19T05:10:27;100915.97;;;16.44;100.00
56402;BME280;42299;35.160;26.100;2023-04-19T05:11:50;100915.03;;;16.60;100.00
56402;BME280;42299;35.160;26.100;2023-04-19T05:13:14;100916.66;;;16.80;100.00
56402;BME280;42299;35.160;26.100;2023-04-19T05:14:36;100920.09;;;16.94;100.00
56402;BME280;42299;35.160;26.100;2023-04-19T05:15:58;100913.75;;;17.07;100.00
56402;BME280;42299;35.160;26.100;2023-04-19T05:17:21;100919.84;;;17.21;100.00
56402;BME280;42299;35.160;26.100;2023-04-19T05:18:43;100917.94;;;17.35;100.00
56402;BME280;42299;35.160;26.100;2023-04-19T05:20:06;100913.38;;;17.46;100.00
56402;BME280;42299;35.160;26.100;2023-04-19T05:21:29;100923.03;;;17.60;100.00
56402;BME280;42299;35.160;26.100;2023-04-19T05:22:56;100920.25;;;17.73;100.00
56402;BME280;42299;35.160;26.100;2023-04-19T05:24:18;100914.75;;;17.87;100.00
56402;BME280;42299;35.160;26.100;2023-04-19T05:25:40;100911.09;;;17.94;100.00
56402;BME280;42299;35.160;26.100;2023-04-19T05:27:03;100910.94;;;18.08;100.00
56402;BME280;42299;35.160;26.100;2023-04-19T05:28:27;100914.25;;;18.25;100.00
56402;BME280;42299;35.160;26.100;2023-04-19T05:29:58;100901.56;;;18.44;100.00
56402;BME280;42299;35.160;26.100;2023-04-19T05:31:21;100906.56;;;18.66;100.00
56402;BME280;42299;35.160;26.100;2023-04-19T05:32:59;100914.16;;;18.94;100.00
56402;BME280;42299;35.160;26.100;2023-04-19T05:34:22;100907.50;;;19.19;100.00
56402;BME280;42299;35.160;26.100;2023-04-19T05:35:44;100900.00;;;19.39;100.00
56402;BME280;42299;35.160;26.100;2023-04-19T05:37:06;100907.81;;;19.53;100.00
56402;BME280;42299;35.160;26.100;2023-04-19T05:38:28;100905.72;;;19.69;100.00
56402;BME280;42299;35.160;26.100;2023-04-19T05:39:53;100903.59;;;19.86;100.00
56402;BME280;42299;35.160;26.100;2023-04-19T05:41:15;100906.72;;;20.08;100.00
56402;BME280;42299;35.160;26.100;2023-04-19T05:42:39;100900.03;;;20.27;100.00
56402;BME280;42299;35.160;26.100;2023-04-19T05:44:03;100910.38;;;20.45;100.00
56402;BME280;42299;35.160;26.100;2023-04-19T05:45:25;100908.28;;;20.59;100.00
56402;BME280;42299;35.160;26.100;2023-04-19T05:46:48;100903.47;;;20.74;100.00
56402;BME280;42299;35.160;26.100;2023-04-19T05:48:23;100904.16;;;20.82;100.00
56402;BME280;42299;35.160;26.100;2023-04-19T05:49:55;100906.06;;;20.77;100.00
56402;BME280;42299;35.160;26.100;2023-04-19T05:51:25;100901.00;;;20.64;100.00
56402;BME280;42299;35.160;26.100;2023-04-19T05:53:08;100913.69;;;20.56;100.00
56402;BME280;42299;35.160;26.100;2023-04-19T05:54:31;100909.03;;;20.64;100.00
56402;BME280;42299;35.160;26.100;2023-04-19T05:55:56;100910.44;;;20.81;100.00
56402;BME280;42299;35.160;26.100;2023-04-19T05:57:20;100911.81;;;20.98;100.00
56402;BME280;42299;35.160;26.100;2023-04-19T05:58:46;100913.09;;;21.19;100.00
56402;BME280;42299;35.160;26.100;2023-04-19T06:00:10;100911.72;;;21.37;100.00
56402;BME280;42299;35.160;26.100;2023-04-19T06:01:48;100915.84;;;21.15;100.00
56402;BME280;42299;35.160;26.100;2023-04-19T06:03:16;100914.84;;;20.83;100.00
56402;BME280;42299;35.160;26.100;2023-04-19T06:04:39;100912.66;;;20.62;100.00
56402;BME280;42299;35.160;26.100;2023-04-19T06:06:02;100915.06;;;20.36;100.00
56402;BME280;42299;35.160;26.100;2023-04-19T06:07:25;100917.50;;;20.05;100.00
56402;BME280;42299;35.160;26.100;2023-04-19T06:08:48;100919.81;;;19.78;100.00
56402;BME280;42299;35.160;26.100;2023-04-19T06:10:10;100921.19;;;19.53;100.00
56402;BME280;42299;35.160;26.100;2023-04-19T06:11:32;100919.78;;;19.31;100.00
56402;BME280;42299;35.160;26.100;2023-04-19T06:12:55;100915.63;;;19.15;100.00
56402;BME280;42299;35.160;26.100;2023-04-19T06:14:17;100920.13;;;19.11;100.00
56402;BME280;42299;35.160;26.100;2023-04-19T06:15:40;100919.22;;;19.10;100.00
56402;BME280;42299;35.160;26.100;2023-04-19T06:17:03;100910.81;;;19.33;100.00
56402;BME280;42299;35.160;26.100;2023-04-19T06:18:25;100914.81;;;19.60;100.00
56402;BME280;42299;35.160;26.100;2023-04-19T06:19:48;100913.41;;;19.85;100.00
56402;BME280;42299;35.160;26.100;2023-04-19T06:21:10;100908.72;;;19.97;100.00
56402;BME280;42299;35.160;26.100;2023-04-19T06:22:33;100908.53;;;20.06;100.00
56402;BME280;42299;35.160;26.100;2023-04-19T06:23:55;100903.69;;;20.23;100.00
56402;BME280;42299;35.160;26.100;2023-04-19T06:25:17;100913.72;;;20.55;100.00
56402;BME280;42299;35.160;26.100;2023-04-19T06:26:40;100912.88;;;20.91;100.00
56402;BME280;42299;35.160;26.100;2023-04-19T06:28:03;100904.91;;;21.24;100.00
56402;BME280;42299;35.160;26.100;2023-04-19T06:29:25;100905.97;;;21.52;100.00
56402;BME280;42299;35.160;26.100;2023-04-19T06:30:49;100913.19;;;21.81;100.00
56402;BME280;42299;35.160;26.100;2023-04-19T06:32:11;100908.91;;;22.06;100.00
56402;BME280;42299;35.160;26.100;2023-04-19T06:33:33;100905.63;;;22.26;100.00
56402;BME280;42299;35.160;26.100;2023-04-19T06:34:55;100905.09;;;22.44;100.00
56402;BME280;42299;35.160;26.100;2023-04-19T06:36:17;100910.13;;;22.55;100.00
56402;BME280;42299;35.160;26.100;2023-04-19T06:37:39;100914.47;;;22.59;100.00
56402;BME280;42299;35.160;26.100;2023-04-19T06:39:02;100909.75;;;22.67;97.14
56402;BME280;42299;35.160;26.100;2023-04-19T06:40:27;100912.19;;;22.76;95.29
56402;BME280;42299;35.160;26.100;2023-04-19T06:41:50;100913.16;;;22.74;93.66
56402;BME280;42299;35.160;26.100;2023-04-19T06:43:13;100916.72;;;22.74;94.13
56402;BME280;42299;35.160;26.100;2023-04-19T06:44:35;100911.06;;;22.83;94.04
56402;BME280;42299;35.160;26.100;2023-04-19T06:45:59;100917.72;;;22.98;92.52
56402;BME280;42299;35.160;26.100;2023-04-19T06:47:21;100916.72;;;23.02;89.32
56402;BME280;42299;35.160;26.100;2023-04-19T06:48:44;100914.78;;;23.05;86.60
56402;BME280;42299;35.160;26.100;2023-04-19T06:50:07;100918.28;;;23.09;85.57
56402;BME280;42299;35.160;26.100;2023-04-19T06:51:30;100913.63;;;22.86;81.93
56402;BME280;42299;35.160;26.100;2023-04-19T06:52:53;100908.66;;;22.45;78.82
56402;BME280;42299;35.160;26.100;2023-04-19T06:54:15;100912.13;;;22.19;78.23
56402;BME280;42299;35.160;26.100;2023-04-19T06:55:38;100918.34;;;22.21;77.88
56402;BME280;42299;35.160;26.100;2023-04-19T06:57:00;100912.66;;;22.32;78.02
56402;BME280;42299;35.160;26.100;2023-04-19T06:58:23;100911.34;;;22.45;75.11
56402;BME280;42299;35.160;26.100;2023-04-19T06:59:45;100915.56;;;22.53;75.35
56402;BME280;42299;35.160;26.100;2023-04-19T07:01:09;100919.59;;;22.68;77.06
56402;BME280;42299;35.160;26.100;2023-04-19T07:02:32;100918.00;;;22.90;75.87
56402;BME280;42299;35.160;26.100;2023-04-19T07:03:54;100921.06;;;23.06;75.45
56402;BME280;42299;35.160;26.100;2023-04-19T07:05:17;100911.84;;;23.13;75.21